createdAt,value
2017-08-01T00:01:42.967Z,99.99
2017-08-01T00:04:07.254Z,99.99
2017-08-01T00:06:31.631Z,99.99
2017-08-01T00:08:39.068Z,99.99
2017-08-01T00:10:54.916Z,99.99
2017-08-01T00:13:02.288Z,99.99
2017-08-01T00:15:26.519Z,99.99
2017-08-01T00:17:42.339Z,99.99
2017-08-01T00:20:06.574Z,99.99
2017-08-01T00:22:30.945Z,99.99
2017-08-01T00:24:46.749Z,99.99
2017-08-01T00:27:11.019Z,99.99
2017-08-01T00:29:35.300Z,99.99
2017-08-01T00:31:59.693Z,99.99
2017-08-01T00:34:23.977Z,99.99
2017-08-01T00:36:48.268Z,99.99
2017-08-01T00:39:12.661Z,99.99
2017-08-01T00:41:36.932Z,99.99
2017-08-01T00:43:44.325Z,99.99
2017-08-01T00:46:08.729Z,99.99
2017-08-01T00:48:24.617Z,99.99
2017-08-01T00:50:49.004Z,99.99
2017-08-01T00:53:13.268Z,99.99
2017-08-01T00:55:37.555Z,99.99
2017-08-01T00:58:01.873Z,99.99
2017-08-01T01:00:26.096Z,99.99
2017-08-01T01:02:50.439Z,99.99
2017-08-01T01:05:14.720Z,99.99
2017-08-01T01:07:39.013Z,99.99
2017-08-01T01:10:03.304Z,99.99
2017-08-01T01:12:19.079Z,99.99
2017-08-01T01:14:20.752Z,99.99
2017-08-01T01:16:14.428Z,99.99
2017-08-01T01:18:30.264Z,99.99
2017-08-01T01:20:54.475Z,99.99
2017-08-01T01:23:18.810Z,99.99
2017-08-01T01:25:29.789Z,99.99
2017-08-01T01:27:31.180Z,99.99
2017-08-01T01:29:38.512Z,99.99
2017-08-01T01:32:02.767Z,99.99
2017-08-01T01:34:18.667Z,99.99
2017-08-01T01:36:42.950Z,99.99
2017-08-01T01:39:07.141Z,99.99
2017-08-01T01:41:31.387Z,99.99
2017-08-01T01:43:55.706Z,99.99
2017-08-01T01:46:11.500Z,99.99
2017-08-01T01:48:35.784Z,99.99
2017-08-01T01:51:00.024Z,99.99
2017-08-01T01:53:24.268Z,99.99
2017-08-01T01:55:26.289Z,99.99
2017-08-01T01:57:50.534Z,99.99
2017-08-01T02:00:06.308Z,99.99
2017-08-01T02:02:22.057Z,99.99
2017-08-01T02:04:46.281Z,99.99
2017-08-01T02:07:10.511Z,99.99
2017-08-01T02:09:17.842Z,99.99
2017-08-01T02:11:42.086Z,99.99
2017-08-01T02:14:06.312Z,99.99
2017-08-01T02:16:22.027Z,99.99
2017-08-01T02:18:46.272Z,99.99
2017-08-01T02:21:02.114Z,99.99
2017-08-01T02:23:09.455Z,99.99
2017-08-01T02:25:33.740Z,99.99
2017-08-01T02:27:58.036Z,99.99
2017-08-01T02:29:59.476Z,99.99
2017-08-01T02:32:23.664Z,99.99
2017-08-01T02:34:39.429Z,99.99
2017-08-01T02:36:55.286Z,99.99
2017-08-01T02:39:11.075Z,99.99
2017-08-01T02:41:35.245Z,99.99
2017-08-01T02:43:59.488Z,99.99
2017-08-01T02:46:23.782Z,99.99
2017-08-01T02:48:39.586Z,99.99
2017-08-01T02:51:03.855Z,99.99
2017-08-01T02:53:19.644Z,99.99
2017-08-01T02:55:35.408Z,99.99
2017-08-01T02:57:37.875Z,99.99
2017-08-01T02:59:53.597Z,99.99
2017-08-01T03:02:17.735Z,99.99
2017-08-01T03:04:33.451Z,99.99
2017-08-01T03:06:57.639Z,99.99
2017-08-01T03:09:13.366Z,99.99
2017-08-01T03:11:37.605Z,99.99
2017-08-01T03:13:53.400Z,99.99
2017-08-01T03:16:17.588Z,99.99
2017-08-01T03:18:33.334Z,99.99
2017-08-01T03:20:40.757Z,99.99
2017-08-01T03:23:05.049Z,99.99
2017-08-01T03:25:29.253Z,99.99
2017-08-01T03:27:45.120Z,99.99
2017-08-01T03:30:09.413Z,99.99
2017-08-01T03:32:25.310Z,99.99
2017-08-01T03:34:32.689Z,99.99
2017-08-01T03:36:56.894Z,99.99
2017-08-01T03:39:12.663Z,99.99
2017-08-01T03:41:28.457Z,99.99
2017-08-01T03:43:52.603Z,99.99
2017-08-01T03:46:08.374Z,99.99
2017-08-01T03:48:32.604Z,99.99
2017-08-01T03:50:48.388Z,99.99
2017-08-01T03:53:04.229Z,99.99
2017-08-01T03:55:19.969Z,99.99
2017-08-01T03:57:44.256Z,99.99
2017-08-01T03:59:45.826Z,99.99
2017-08-01T04:01:55.909Z,99.99
2017-08-01T04:04:11.815Z,99.99
2017-08-01T04:06:36.003Z,99.99
2017-08-01T04:09:00.222Z,99.99
2017-08-01T04:11:24.375Z,99.99
2017-08-01T04:13:48.660Z,99.99
2017-08-01T04:16:12.818Z,99.99
2017-08-01T04:18:36.964Z,99.99
2017-08-01T04:20:52.739Z,99.99
2017-08-01T04:23:08.540Z,99.99
2017-08-01T04:25:24.329Z,99.99
2017-08-01T04:27:48.460Z,99.99
2017-08-01T04:30:12.687Z,99.99
2017-08-01T04:32:36.834Z,99.99
2017-08-01T04:34:44.112Z,99.99
2017-08-01T04:36:59.905Z,99.99
2017-08-01T04:39:15.938Z,99.99
2017-08-01T04:41:31.729Z,99.99
2017-08-01T04:43:55.919Z,99.99
2017-08-01T04:46:20.205Z,99.99
2017-08-01T04:48:44.430Z,99.99
2017-08-01T04:51:08.826Z,90.44
2017-08-01T04:53:24.689Z,83.82
2017-08-01T04:55:49.289Z,79.82
2017-08-01T04:58:05.478Z,78.23
2017-08-01T05:00:16.336Z,74.1
2017-08-01T05:02:15.644Z,70.31
2017-08-01T05:04:40.358Z,66.86
2017-08-01T05:06:56.725Z,69.59
2017-08-01T05:09:13.102Z,67.22
2017-08-01T05:11:38.185Z,64.51
2017-08-01T05:13:54.727Z,62.63
2017-08-01T05:16:19.901Z,61.77
2017-08-01T05:18:45.165Z,64.51
2017-08-01T05:21:10.645Z,64.29
2017-08-01T05:23:35.930Z,61.09
2017-08-01T05:25:47.166Z,64.22
2017-08-01T05:28:03.921Z,62.85
2017-08-01T05:30:29.162Z,67.5
2017-08-01T05:32:54.360Z,74.08
2017-08-01T05:35:19.551Z,76.89
2017-08-01T05:37:36.024Z,80.54
2017-08-01T05:40:01.047Z,80.4
2017-08-01T05:42:25.941Z,77.7
2017-08-01T05:44:42.209Z,74.38
2017-08-01T05:46:58.523Z,71.76
2017-08-01T05:49:23.447Z,69.42
2017-08-01T05:51:39.867Z,74.38
2017-08-01T05:53:51.144Z,75.15
2017-08-01T05:56:16.017Z,71.53
2017-08-01T05:58:41.147Z,74.79
2017-08-01T06:00:57.531Z,74.92
2017-08-01T06:03:22.434Z,76.05
2017-08-01T06:05:38.733Z,73.79
2017-08-01T06:07:55.135Z,58.59
2017-08-01T06:10:20.046Z,56.3
2017-08-01T06:12:45.010Z,60.02
2017-08-01T06:15:10.113Z,57.39
2017-08-01T06:17:18.361Z,51.03
2017-08-01T06:19:43.801Z,44.26
2017-08-01T06:22:00.832Z,37.02
2017-08-01T06:24:26.532Z,39.03
2017-08-01T06:26:52.497Z,38.2
2017-08-01T06:29:10.126Z,37.62
2017-08-01T06:31:36.580Z,40.64
2017-08-01T06:34:03.130Z,32.63
2017-08-01T06:36:30.493Z,33.35
2017-08-01T06:38:57.033Z,30.22
2017-08-01T06:41:23.612Z,26.32
2017-08-01T06:43:50.332Z,29.21
2017-08-01T06:46:17.187Z,29.01
2017-08-01T06:48:43.988Z,27.67
2017-08-01T06:51:10.881Z,31.01
2017-08-01T06:53:37.784Z,29.72
2017-08-01T06:56:06.717Z,31.77
2017-08-01T06:58:25.007Z,27.11
2017-08-01T07:00:51.930Z,27.92
2017-08-01T07:03:21.030Z,31.96
2017-08-01T07:05:31.794Z,32.17
2017-08-01T07:07:58.813Z,37.04
2017-08-01T07:10:17.194Z,36.98
2017-08-01T07:12:44.057Z,38.86
2017-08-01T07:15:02.248Z,37.43
2017-08-01T07:17:29.012Z,35.31
2017-08-01T07:19:55.649Z,32.64
2017-08-01T07:22:22.200Z,37.41
2017-08-01T07:24:40.004Z,41.3
2017-08-01T07:27:06.343Z,43.38
2017-08-01T07:29:32.661Z,44.19
2017-08-01T07:31:58.700Z,42.4
2017-08-01T07:34:24.604Z,42.28
2017-08-01T07:36:41.990Z,43.23
2017-08-01T07:38:53.839Z,42.08
2017-08-01T07:41:20.161Z,43.3
2017-08-01T07:43:23.085Z,41.99
2017-08-01T07:45:48.921Z,41.63
2017-08-01T07:48:14.731Z,40.56
2017-08-01T07:50:40.482Z,36.96
2017-08-01T07:53:06.305Z,39.56
2017-08-01T07:55:32.289Z,38.75
2017-08-01T07:57:58.304Z,38.37
2017-08-01T08:00:24.329Z,38.15
2017-08-01T08:02:50.367Z,38.73
2017-08-01T08:05:07.793Z,40.92
2017-08-01T08:07:25.125Z,38.73
2017-08-01T08:09:51.124Z,41.89
2017-08-01T08:12:17.013Z,38.37
2017-08-01T08:14:42.870Z,39.42
2017-08-01T08:17:08.797Z,35.8
2017-08-01T08:19:34.861Z,37.15
2017-08-01T08:22:00.939Z,36.74
2017-08-01T08:24:27.011Z,39.36
2017-08-01T08:26:53.149Z,39.5
2017-08-01T08:29:19.207Z,37.18
2017-08-01T08:31:45.182Z,40.88
2017-08-01T08:34:11.212Z,39.7
2017-08-01T08:36:37.138Z,37.77
2017-08-01T08:39:03.223Z,35.19
2017-08-01T08:41:29.325Z,38.86
2017-08-01T08:43:55.212Z,39.7
2017-08-01T08:47:59.844Z,46.63
2017-08-01T08:50:17.021Z,46.6
2017-08-01T08:52:42.665Z,43.54
2017-08-01T08:55:09.311Z,39.64
2017-08-01T08:57:35.233Z,40.88
2017-08-01T09:00:00.990Z,40.86
2017-08-01T09:02:26.798Z,37.66
2017-08-01T09:04:52.716Z,37.12
2017-08-01T09:07:18.627Z,36.64
2017-08-01T09:09:44.623Z,37.48
2017-08-01T09:12:10.566Z,35.58
2017-08-01T09:14:36.485Z,38.06
2017-08-01T09:16:53.854Z,39.2
2017-08-01T09:19:19.606Z,42.63
2017-08-01T09:21:45.583Z,41.12
2017-08-01T09:24:11.287Z,43.28
2017-08-01T09:26:37.153Z,44.91
2017-08-01T09:29:02.726Z,45.1
2017-08-01T09:31:28.275Z,43.28
2017-08-01T09:33:53.905Z,43.87
2017-08-01T09:36:19.529Z,39.08
2017-08-01T09:38:45.242Z,36.46
2017-08-01T09:41:10.922Z,34.28
2017-08-01T09:43:36.791Z,34.76
2017-08-01T09:46:02.470Z,32.59
2017-08-01T09:48:28.504Z,35.52
2017-08-01T09:50:54.222Z,35.26
2017-08-01T09:53:20.138Z,35.94
2017-08-01T09:55:46.007Z,37.77
2017-08-01T09:58:11.816Z,36.13
2017-08-01T10:00:37.795Z,34.89
2017-08-01T10:03:03.778Z,39.12
2017-08-01T10:05:29.770Z,35.26
2017-08-01T10:07:55.616Z,35.46
2017-08-01T10:10:21.539Z,34.46
2017-08-01T10:12:47.637Z,36.44
2017-08-01T10:15:13.408Z,34.83
2017-08-01T10:17:39.289Z,37.7
2017-08-01T10:19:52.206Z,37.24
2017-08-01T10:22:18.083Z,37.3
2017-08-01T10:24:43.908Z,38.07
2017-08-01T10:27:09.630Z,40.29
2017-08-01T10:29:35.446Z,40.56
2017-08-01T10:32:01.091Z,44.07
2017-08-01T10:34:28.637Z,44.4
2017-08-01T10:36:54.996Z,43.84
2017-08-01T10:39:21.102Z,43.24
2017-08-01T10:41:47.526Z,42.4
2017-08-01T10:44:13.181Z,42.82
2017-08-01T10:46:38.968Z,45.54
2017-08-01T10:49:04.748Z,47.44
2017-08-01T10:51:21.966Z,45.17
2017-08-01T10:53:47.305Z,45.35
2017-08-01T10:56:12.924Z,45.27
2017-08-01T10:58:39.589Z,46.7
2017-08-01T11:01:05.316Z,45.24
2017-08-01T11:03:30.948Z,44.51
2017-08-01T11:05:56.424Z,46.68
2017-08-01T11:08:22.219Z,47
2017-08-01T11:10:47.558Z,45.19
2017-08-01T11:13:13.153Z,47.09
2017-08-01T11:15:38.713Z,47.27
2017-08-01T11:18:06.993Z,46.9
2017-08-01T11:20:33.391Z,46.7
2017-08-01T11:22:58.896Z,46.8
2017-08-01T11:25:24.406Z,47.49
2017-08-01T11:27:49.960Z,46.82
2017-08-01T11:30:15.516Z,46.55
2017-08-01T11:32:42.601Z,45.24
2017-08-01T11:35:09.122Z,46.15
2017-08-01T11:37:34.598Z,46.06
2017-08-01T11:40:00.288Z,46.55
2017-08-01T11:42:25.823Z,47.31
2017-08-01T11:44:51.610Z,47.88
2017-08-01T11:47:17.659Z,46.75
2017-08-01T11:49:44.487Z,46.7
2017-08-01T11:52:13.072Z,46.7
2017-08-01T11:54:40.589Z,45.86
2017-08-01T11:57:08.658Z,45.21
2017-08-01T11:59:37.260Z,46.55
2017-08-01T12:02:08.802Z,45.21
2017-08-01T12:04:35.030Z,45.53
2017-08-01T12:07:00.637Z,46.45
2017-08-01T12:09:26.036Z,44.55
2017-08-01T12:11:51.390Z,44.62
2017-08-01T12:14:16.937Z,45.14
2017-08-01T12:16:42.395Z,45.14
2017-08-01T12:19:08.187Z,46.45
2017-08-01T12:21:37.437Z,45.09
2017-08-01T12:24:02.883Z,45.61
2017-08-01T12:26:28.437Z,45.06
2017-08-01T12:28:53.819Z,44.76
2017-08-01T12:31:19.338Z,45.61
2017-08-01T12:33:44.757Z,45.02
2017-08-01T12:36:10.509Z,44.1
2017-08-01T12:38:27.450Z,44.1
2017-08-01T12:40:52.843Z,43.62
2017-08-01T12:43:18.253Z,43.38
2017-08-01T12:45:43.697Z,43.73
2017-08-01T12:48:00.589Z,44.27
2017-08-01T12:50:26.084Z,44.18
2017-08-01T12:52:51.601Z,46.67
2017-08-01T12:55:17.154Z,47.26
2017-08-01T12:57:42.697Z,47.16
2017-08-01T13:00:08.254Z,47.26
2017-08-01T13:02:33.665Z,46.1
2017-08-01T13:05:04.786Z,45.34
2017-08-01T13:10:55.717Z,47.36
2017-08-01T13:16:59.063Z,45.18
2017-08-01T13:19:25.281Z,44.89
2017-08-01T13:21:47.990Z,45.46
2017-08-01T13:29:40.865Z,44.49
2017-08-01T13:39:19.831Z,46.84
2017-08-01T13:42:12.511Z,46.67
2017-08-01T13:44:39.358Z,48.74
2017-08-01T13:49:29.777Z,50.63
2017-08-01T13:51:46.630Z,50.9
2017-08-01T13:54:12.035Z,50.98
2017-08-01T13:56:37.590Z,51.76
2017-08-01T13:59:02.824Z,53.89
2017-08-01T14:01:27.868Z,55.51
2017-08-01T14:03:53.049Z,57.34
2017-08-01T14:06:18.165Z,61.61
2017-08-01T14:08:43.383Z,60.69
2017-08-01T14:11:08.493Z,59.71
2017-08-01T14:13:19.251Z,60.76
2017-08-01T14:15:45.005Z,60.37
2017-08-01T14:18:10.750Z,59.71
2017-08-01T14:20:35.991Z,60.53
2017-08-01T14:23:01.021Z,59.59
2017-08-01T14:25:26.098Z,58.54
2017-08-01T14:27:51.169Z,59.09
2017-08-01T14:30:16.442Z,59.46
2017-08-01T14:32:41.441Z,59.27
2017-08-01T14:35:06.567Z,59.27
2017-08-01T14:37:31.793Z,58.73
2017-08-01T14:39:57.046Z,57.98
2017-08-01T14:43:59.743Z,57.12
2017-08-01T14:46:24.996Z,59.19
2017-08-01T14:48:49.988Z,58.7
2017-08-01T14:51:15.046Z,57.92
2017-08-01T14:53:40.174Z,58.9
2017-08-01T14:56:05.365Z,59.95
2017-08-01T14:58:30.265Z,60.34
2017-08-01T15:00:55.243Z,59.49
2017-08-01T15:03:20.314Z,60.21
2017-08-01T15:05:45.297Z,60.41
2017-08-01T15:08:10.505Z,60.96
2017-08-01T15:10:35.462Z,61.55
2017-08-01T15:13:00.405Z,62.4
2017-08-01T15:15:25.491Z,61.43
2017-08-01T15:17:50.350Z,61.49
2017-08-01T15:20:15.472Z,61.35
2017-08-01T15:22:40.375Z,62.01
2017-08-01T15:25:05.351Z,61.02
2017-08-01T15:27:30.349Z,63.31
2017-08-01T15:29:55.882Z,64.36
2017-08-01T15:32:22.125Z,64.16
2017-08-01T15:34:50.536Z,64.52
2017-08-01T15:37:17.024Z,64.42
2017-08-01T15:39:45.895Z,63.71
2017-08-01T15:42:11.639Z,63.45
2017-08-01T15:44:38.147Z,63.81
2017-08-01T15:47:05.063Z,64.39
2017-08-01T15:49:29.691Z,65.17
2017-08-01T15:51:55.839Z,66.21
2017-08-01T15:54:20.149Z,67.83
2017-08-01T15:56:44.968Z,68.87
2017-08-01T15:59:09.721Z,69.26
2017-08-01T16:01:34.480Z,69.74
2017-08-01T16:03:59.296Z,68.22
2017-08-01T16:08:00.471Z,67.18
2017-08-01T16:10:25.232Z,68.09
2017-08-01T16:12:49.972Z,69.29
2017-08-01T16:15:14.670Z,68.8
2017-08-01T16:17:39.305Z,70.68
2017-08-01T16:20:03.907Z,73.04
2017-08-01T16:22:28.556Z,75.85
2017-08-01T16:24:53.166Z,74.88
2017-08-01T16:27:17.844Z,75.41
2017-08-01T16:29:42.531Z,75.37
2017-08-01T16:32:07.118Z,76.09
2017-08-01T16:34:31.752Z,74.67
2017-08-01T16:36:56.433Z,76.97
2017-08-01T16:39:21.007Z,77.06
2017-08-01T16:41:45.530Z,77.61
2017-08-01T16:44:01.698Z,81.35
2017-08-01T16:46:26.292Z,79.06
2017-08-01T16:48:50.884Z,82.09
2017-08-01T16:51:15.476Z,81.45
2017-08-01T16:53:40.148Z,82.03
2017-08-01T16:55:42.519Z,82.13
2017-08-01T16:58:07.132Z,83.7
2017-08-01T17:00:31.652Z,85.25
2017-08-01T17:02:47.757Z,85.83
2017-08-01T17:05:12.288Z,85.68
2017-08-01T17:07:28.369Z,85.78
2017-08-01T17:09:52.912Z,84.52
2017-08-01T17:12:17.451Z,83.69
2017-08-01T17:14:41.968Z,82.71
2017-08-01T17:17:06.495Z,81.78
2017-08-01T17:19:31.057Z,81.24
2017-08-01T17:21:55.667Z,80.91
2017-08-01T17:24:20.038Z,81.24
2017-08-01T17:26:44.636Z,82.21
2017-08-01T17:29:09.109Z,80.76
2017-08-01T17:31:33.676Z,80.66
2017-08-01T17:33:58.195Z,80.87
2017-08-01T17:36:22.754Z,81.59
2017-08-01T17:38:47.335Z,80.13
2017-08-01T17:41:03.344Z,79.68
2017-08-01T17:43:28.140Z,79.97
2017-08-01T17:45:52.976Z,81.2
2017-08-01T17:48:17.906Z,81.39
2017-08-01T17:50:42.405Z,81.63
2017-08-01T17:53:06.912Z,82.95
2017-08-01T17:55:31.480Z,83.53
2017-08-01T17:57:56.042Z,83.53
2017-08-01T18:00:20.574Z,83.72
2017-08-01T18:02:45.159Z,84.41
2017-08-01T18:05:09.726Z,84.83
2017-08-01T18:07:34.417Z,84.93
2017-08-01T18:09:58.890Z,84.45
2017-08-01T18:12:23.493Z,86.05
2017-08-01T18:14:48.052Z,86.69
2017-08-01T18:17:12.619Z,86.89
2017-08-01T18:19:37.211Z,86.89
2017-08-01T18:22:02.043Z,86.99
2017-08-01T18:24:18.341Z,87.57
2017-08-01T18:26:42.859Z,88.79
2017-08-01T18:29:07.888Z,89.37
2017-08-01T18:31:32.713Z,87.66
2017-08-01T18:33:57.234Z,89.27
2017-08-01T18:36:22.044Z,89.17
2017-08-01T18:38:24.228Z,89.51
2017-08-01T18:40:35.784Z,88.83
2017-08-01T18:43:00.617Z,89.07
2017-08-01T18:45:25.992Z,87.91
2017-08-01T18:47:50.806Z,88.64
2017-08-01T18:50:15.332Z,89.31
2017-08-01T18:52:40.498Z,91.6
2017-08-01T18:55:06.115Z,92.86
2017-08-01T18:57:30.984Z,92.86
2017-08-01T18:59:56.172Z,92.67
2017-08-01T19:04:52.352Z,91.55
2017-08-01T19:07:17.844Z,92.86
2017-08-01T19:09:43.304Z,94.32
2017-08-01T19:12:09.248Z,92.67
2017-08-01T19:14:35.006Z,92.57
2017-08-01T19:17:01.232Z,96.94
2017-08-01T19:19:26.642Z,99.99
2017-08-01T19:21:52.184Z,99.99
2017-08-01T19:24:17.505Z,99.99
2017-08-01T19:26:44.927Z,99.99
2017-08-01T19:29:09.807Z,99.99
2017-08-01T19:33:11.326Z,99.99
2017-08-01T19:35:37.370Z,99.99
2017-08-01T19:38:02.147Z,99.99
2017-08-01T19:40:26.991Z,99.99
2017-08-01T19:42:51.732Z,99.99
2017-08-01T19:45:16.814Z,99.99
2017-08-01T19:47:41.707Z,99.99
2017-08-01T19:50:06.673Z,99.99
2017-08-01T19:52:31.884Z,99.99
2017-08-01T19:54:56.948Z,99.99
2017-08-01T19:57:21.654Z,99.99
2017-08-01T19:59:46.670Z,99.99
2017-08-01T20:02:11.294Z,99.99
2017-08-01T20:04:36.107Z,99.99
2017-08-01T20:07:00.897Z,99.99
2017-08-01T20:09:26.686Z,99.99
2017-08-01T20:11:42.899Z,99.99
2017-08-01T20:14:07.611Z,99.99
2017-08-01T20:16:32.348Z,99.99
2017-08-01T20:18:57.013Z,99.99
2017-08-01T20:21:21.697Z,99.99
2017-08-01T20:25:00.840Z,99.99
2017-08-01T20:27:25.396Z,99.99
2017-08-01T20:29:49.784Z,99.99
2017-08-01T20:32:14.174Z,99.99
2017-08-01T20:34:38.562Z,99.99
2017-08-01T20:37:02.895Z,99.99
2017-08-01T20:39:27.161Z,99.99
2017-08-01T20:41:51.488Z,99.99
2017-08-01T20:44:15.841Z,99.99
2017-08-01T20:46:40.168Z,99.99
2017-08-01T20:49:04.536Z,99.99
2017-08-01T20:53:14.010Z,99.99
2017-08-01T20:55:29.937Z,99.99
2017-08-01T20:57:54.329Z,99.99
2017-08-01T21:00:18.703Z,99.99
2017-08-01T21:02:43.051Z,99.99
2017-08-01T21:05:07.436Z,99.99
2017-08-01T21:07:31.814Z,99.99
2017-08-01T21:09:56.206Z,99.99
2017-08-01T21:12:20.544Z,99.99
2017-08-01T21:14:44.909Z,99.99
2017-08-01T21:17:09.303Z,99.99
2017-08-01T21:19:33.634Z,99.99
2017-08-01T21:21:49.546Z,99.99
2017-08-01T21:23:51.934Z,99.99
2017-08-01T21:25:59.652Z,99.99
2017-08-01T21:28:27.018Z,99.99
2017-08-01T21:30:51.839Z,99.99
2017-08-01T21:33:16.233Z,99.99
2017-08-01T21:35:40.813Z,99.99
2017-08-01T21:38:05.261Z,99.99
2017-08-01T21:40:29.509Z,99.99
2017-08-01T21:42:53.898Z,99.99
2017-08-01T21:45:18.289Z,99.99
2017-08-01T21:47:42.603Z,99.99
2017-08-01T21:50:06.917Z,99.99
2017-08-01T21:52:32.308Z,99.99
2017-08-01T21:54:56.630Z,99.99
2017-08-01T21:57:20.995Z,99.99
2017-08-01T21:59:45.306Z,99.99
2017-08-01T22:01:56.283Z,99.99
2017-08-01T22:04:00.000Z,99.99
2017-08-01T22:06:24.469Z,99.99
2017-08-01T22:08:48.822Z,99.99
2017-08-01T22:11:13.084Z,99.99
2017-08-01T22:13:37.407Z,99.99
2017-08-01T22:16:01.834Z,99.99
2017-08-01T22:18:26.155Z,99.99
2017-08-01T22:20:50.572Z,99.99
2017-08-01T22:23:14.778Z,99.99
2017-08-01T22:25:39.146Z,99.99
2017-08-01T22:27:50.326Z,99.99
2017-08-01T22:30:14.759Z,99.99
2017-08-01T22:32:39.083Z,99.99
2017-08-01T22:35:03.400Z,99.99
2017-08-01T22:37:27.948Z,99.99
2017-08-01T22:39:52.297Z,99.99
2017-08-01T22:42:16.659Z,99.99
2017-08-01T22:44:40.941Z,99.99
2017-08-01T22:47:05.323Z,99.99
2017-08-01T22:49:29.701Z,99.99
2017-08-01T22:51:54.098Z,99.99
2017-08-01T22:54:18.490Z,99.99
2017-08-01T22:56:42.836Z,99.99
2017-08-01T22:59:07.202Z,99.99
2017-08-01T23:01:17.721Z,99.99
2017-08-01T23:03:42.075Z,99.99
2017-08-01T23:06:06.422Z,99.99
2017-08-01T23:08:31.827Z,99.99
2017-08-01T23:10:56.217Z,99.99
2017-08-01T23:13:12.131Z,99.99
2017-08-01T23:15:36.442Z,99.99
2017-08-01T23:18:00.805Z,99.99
2017-08-01T23:20:25.120Z,99.99
2017-08-01T23:22:49.477Z,99.99
2017-08-01T23:25:05.342Z,99.99
2017-08-01T23:27:29.660Z,99.99
2017-08-01T23:29:53.988Z,99.99
2017-08-01T23:32:18.255Z,99.99
2017-08-01T23:34:42.561Z,99.99
2017-08-01T23:36:53.080Z,99.99
2017-08-01T23:39:17.424Z,99.99
2017-08-01T23:41:28.453Z,99.99
2017-08-01T23:43:52.817Z,99.99
2017-08-01T23:46:17.120Z,99.99
2017-08-01T23:48:41.423Z,99.99
2017-08-01T23:50:52.156Z,99.99
2017-08-01T23:53:16.513Z,99.99
2017-08-01T23:55:40.819Z,99.99
2017-08-01T23:58:05.072Z,99.99
